createdAt,value
2022-09-20T00:00:52.495Z,0.00
2022-09-20T00:01:52.436Z,0.00
2022-09-20T00:02:52.388Z,0.00
2022-09-20T00:03:52.384Z,0.00
2022-09-20T00:04:52.436Z,0.00
2022-09-20T00:05:52.355Z,0.00
2022-09-20T00:06:52.365Z,0.00
2022-09-20T00:07:52.327Z,0.00
2022-09-20T00:08:52.314Z,0.00
2022-09-20T00:09:52.312Z,0.00
2022-09-20T00:10:52.296Z,0.00
2022-09-20T00:11:52.289Z,0.00
2022-09-20T00:12:52.291Z,0.00
2022-09-20T00:13:52.331Z,0.00
2022-09-20T00:14:52.246Z,0.00
2022-09-20T00:15:52.243Z,0.00
2022-09-20T00:16:52.332Z,0.00
2022-09-20T00:17:52.411Z,0.00
2022-09-20T00:18:52.226Z,0.00
2022-09-20T00:19:52.196Z,0.00
2022-09-20T00:20:52.178Z,0.00
2022-09-20T00:21:52.170Z,0.00
2022-09-20T00:22:52.163Z,0.00
2022-09-20T00:23:52.165Z,0.00
2022-09-20T00:24:52.141Z,0.00
2022-09-20T00:25:52.123Z,0.00
2022-09-20T00:26:52.117Z,0.00
2022-09-20T00:27:52.108Z,0.00
2022-09-20T00:28:52.117Z,0.00
2022-09-20T00:29:52.092Z,0.00
2022-09-20T00:30:52.070Z,0.00
2022-09-20T00:31:52.134Z,0.00
2022-09-20T00:32:52.047Z,0.00
2022-09-20T00:33:52.070Z,0.00
2022-09-20T00:34:52.024Z,0.00
2022-09-20T00:35:52.019Z,0.00
2022-09-20T00:36:52.003Z,0.00
2022-09-20T00:37:51.996Z,0.00
2022-09-20T00:38:52.002Z,0.00
2022-09-20T00:39:51.972Z,0.00
2022-09-20T00:40:51.961Z,0.00
2022-09-20T00:41:51.949Z,0.00
2022-09-20T00:42:51.935Z,0.00
2022-09-20T00:43:51.981Z,0.00
2022-09-20T00:44:51.934Z,0.00
2022-09-20T00:45:51.987Z,0.00
2022-09-20T00:46:51.887Z,0.00
2022-09-20T00:47:51.888Z,0.00
2022-09-20T00:48:51.864Z,0.00
2022-09-20T00:49:51.903Z,0.00
2022-09-20T00:50:51.846Z,0.00
2022-09-20T00:51:51.832Z,0.00
2022-09-20T00:52:51.829Z,0.00
2022-09-20T00:53:51.809Z,0.00
2022-09-20T00:54:51.822Z,0.00
2022-09-20T00:55:51.788Z,0.00
2022-09-20T00:56:51.784Z,0.00
2022-09-20T00:57:51.768Z,0.00
2022-09-20T00:58:51.751Z,0.00
2022-09-20T00:59:51.749Z,0.00
2022-09-20T01:00:51.871Z,0.00
2022-09-20T01:01:51.788Z,0.00
2022-09-20T01:02:51.832Z,0.00
2022-09-20T01:03:51.707Z,0.00
2022-09-20T01:04:51.685Z,0.00
2022-09-20T01:05:51.720Z,0.00
2022-09-20T01:06:51.669Z,0.00
2022-09-20T01:07:51.666Z,0.00
2022-09-20T01:08:51.647Z,0.00
2022-09-20T01:09:51.640Z,0.00
2022-09-20T01:10:51.617Z,0.00
2022-09-20T01:11:51.623Z,0.00
2022-09-20T01:12:51.600Z,0.00
2022-09-20T01:13:51.629Z,0.00
2022-09-20T01:14:51.576Z,0.00
2022-09-20T01:15:51.570Z,0.00
2022-09-20T01:16:51.602Z,0.00
2022-09-20T01:17:51.547Z,0.00
2022-09-20T01:18:51.531Z,0.00
2022-09-20T01:19:51.524Z,0.00
2022-09-20T01:20:51.506Z,0.00
2022-09-20T01:21:51.530Z,0.00
2022-09-20T01:22:51.475Z,0.00
2022-09-20T01:23:51.474Z,0.00
2022-09-20T01:24:51.463Z,0.00
2022-09-20T01:25:51.449Z,0.00
2022-09-20T01:26:51.446Z,0.00
2022-09-20T01:27:51.443Z,0.00
2022-09-20T01:28:51.422Z,0.00
2022-09-20T01:29:51.405Z,0.00
2022-09-20T01:30:51.392Z,0.00
2022-09-20T01:31:51.551Z,0.00
2022-09-20T01:32:51.369Z,0.00
2022-09-20T01:33:51.382Z,0.00
2022-09-20T01:34:51.347Z,0.00
2022-09-20T01:35:51.345Z,0.00
2022-09-20T01:36:51.331Z,0.00
2022-09-20T01:37:51.336Z,0.00
2022-09-20T01:38:51.320Z,0.00
2022-09-20T01:39:51.291Z,0.00
2022-09-20T01:40:51.286Z,0.00
2022-09-20T01:41:51.276Z,0.00
2022-09-20T01:42:51.266Z,0.00
2022-09-20T01:43:51.260Z,0.00
2022-09-20T01:44:51.237Z,0.00
2022-09-20T01:45:51.332Z,0.00
2022-09-20T01:46:51.219Z,0.00
2022-09-20T01:47:51.210Z,0.00
2022-09-20T01:48:51.204Z,0.00
2022-09-20T01:49:51.179Z,0.00
2022-09-20T01:50:51.170Z,0.00
2022-09-20T01:51:51.189Z,0.00
2022-09-20T01:52:51.151Z,0.00
2022-09-20T01:53:51.185Z,0.00
2022-09-20T01:54:51.130Z,0.00
2022-09-20T01:55:51.120Z,0.00
2022-09-20T01:56:51.108Z,0.00
2022-09-20T01:57:51.096Z,0.00
2022-09-20T01:59:07.140Z,0.00
2022-09-20T01:59:52.081Z,0.00
2022-09-20T02:00:51.080Z,0.00
2022-09-20T02:01:51.065Z,0.00
2022-09-20T02:02:51.184Z,0.00
2022-09-20T02:03:51.021Z,0.00
2022-09-20T02:04:51.025Z,0.00
2022-09-20T02:05:50.999Z,0.00
2022-09-20T02:06:50.996Z,0.00
2022-09-20T02:07:50.984Z,0.00
2022-09-20T02:08:50.974Z,0.00
2022-09-20T02:09:50.989Z,0.00
2022-09-20T02:10:50.940Z,0.00
2022-09-20T02:11:50.931Z,0.00
2022-09-20T02:12:50.931Z,0.00
2022-09-20T02:13:50.920Z,0.00
2022-09-20T02:14:50.921Z,0.00
2022-09-20T02:15:50.893Z,0.00
2022-09-20T02:16:50.970Z,0.00
2022-09-20T02:17:50.869Z,0.00
2022-09-20T02:18:50.861Z,0.00
2022-09-20T02:19:50.849Z,0.00
2022-09-20T02:20:50.848Z,0.00
2022-09-20T02:21:50.827Z,0.00
2022-09-20T02:22:50.833Z,0.00
2022-09-20T02:23:50.798Z,0.00
2022-09-20T02:24:50.787Z,0.00
2022-09-20T02:25:50.816Z,0.00
2022-09-20T02:26:50.771Z,0.00
2022-09-20T02:27:50.753Z,0.00
2022-09-20T02:28:50.739Z,0.00
2022-09-20T02:29:50.729Z,0.00
2022-09-20T02:30:50.732Z,0.00
2022-09-20T02:31:50.794Z,0.00
2022-09-20T02:32:50.703Z,0.00
2022-09-20T02:33:50.685Z,0.00
2022-09-20T02:34:50.683Z,0.00
2022-09-20T02:35:50.676Z,0.00
2022-09-20T02:36:50.653Z,0.00
2022-09-20T02:37:50.675Z,0.00
2022-09-20T02:38:50.636Z,0.00
2022-09-20T02:39:50.626Z,0.00
2022-09-20T02:40:50.632Z,0.00
2022-09-20T02:41:50.623Z,0.00
2022-09-20T02:42:50.584Z,0.00
2022-09-20T02:43:50.572Z,0.00
2022-09-20T02:44:50.571Z,0.00
2022-09-20T02:45:50.633Z,0.00
2022-09-20T02:46:50.545Z,0.00
2022-09-20T02:47:50.535Z,0.00
2022-09-20T02:48:50.524Z,0.00
2022-09-20T02:49:50.513Z,0.00
2022-09-20T02:50:50.516Z,0.00
2022-09-20T02:51:50.487Z,0.00
2022-09-20T02:52:50.479Z,0.00
2022-09-20T02:53:50.459Z,0.00
2022-09-20T02:54:50.449Z,0.00
2022-09-20T02:55:50.436Z,0.00
2022-09-20T02:56:50.445Z,0.00
2022-09-20T02:57:50.432Z,0.00
2022-09-20T02:58:50.415Z,0.00
2022-09-20T02:59:50.392Z,0.00
2022-09-20T03:00:50.429Z,0.00
2022-09-20T03:01:50.438Z,0.00
2022-09-20T03:02:50.360Z,0.00
2022-09-20T03:03:50.352Z,0.00
2022-09-20T03:04:50.351Z,0.00
2022-09-20T03:05:50.323Z,0.00
2022-09-20T03:06:50.333Z,0.00
2022-09-20T03:07:50.308Z,0.00
2022-09-20T03:08:50.306Z,0.00
2022-09-20T03:09:50.280Z,0.00
2022-09-20T03:10:50.267Z,0.00
2022-09-20T03:11:50.270Z,0.00
2022-09-20T03:12:50.252Z,0.00
2022-09-20T03:13:50.265Z,0.00
2022-09-20T03:14:50.248Z,0.00
2022-09-20T03:15:50.213Z,0.00
2022-09-20T03:16:52.400Z,0.00
2022-09-20T03:17:50.196Z,0.00
2022-09-20T03:18:50.194Z,0.00
2022-09-20T03:19:50.167Z,0.00
2022-09-20T03:20:50.163Z,0.00
2022-09-20T03:21:50.167Z,0.00
2022-09-20T03:22:50.139Z,0.00
2022-09-20T03:23:50.120Z,0.00
2022-09-20T03:24:50.118Z,0.00
2022-09-20T03:25:50.105Z,0.00
2022-09-20T03:26:50.096Z,0.00
2022-09-20T03:27:50.097Z,0.00
2022-09-20T03:28:50.069Z,0.00
2022-09-20T03:29:50.110Z,0.00
2022-09-20T03:30:50.060Z,0.00
2022-09-20T03:31:50.089Z,0.00
2022-09-20T03:32:50.037Z,0.00
2022-09-20T03:33:50.017Z,0.00
2022-09-20T03:34:49.999Z,0.00
2022-09-20T03:35:49.996Z,0.00
2022-09-20T03:36:49.978Z,0.00
2022-09-20T03:37:49.970Z,0.00
2022-09-20T03:38:49.975Z,0.00
2022-09-20T03:39:49.951Z,0.00
2022-09-20T03:40:50.011Z,0.00
2022-09-20T03:41:49.928Z,0.00
2022-09-20T03:42:49.921Z,0.00
2022-09-20T03:43:49.926Z,0.00
2022-09-20T03:44:49.887Z,0.00
2022-09-20T03:45:49.940Z,0.00
2022-09-20T03:46:49.893Z,0.00
2022-09-20T03:47:49.854Z,0.00
2022-09-20T03:48:49.842Z,0.00
2022-09-20T03:49:49.845Z,0.00
2022-09-20T03:50:49.819Z,0.00
2022-09-20T03:51:49.830Z,0.00
2022-09-20T03:52:49.805Z,0.00
2022-09-20T03:53:49.788Z,0.00
2022-09-20T03:54:49.790Z,0.00
2022-09-20T03:55:49.764Z,0.00
2022-09-20T03:56:49.753Z,0.00
2022-09-20T03:57:49.747Z,0.00
2022-09-20T03:58:49.737Z,0.00
2022-09-20T03:59:49.762Z,0.00
2022-09-20T04:00:49.788Z,0.00
2022-09-20T04:01:49.740Z,0.00
2022-09-20T04:02:49.693Z,0.00
2022-09-20T04:03:49.688Z,0.00
2022-09-20T04:04:49.685Z,0.00
2022-09-20T04:05:49.663Z,0.00
2022-09-20T04:06:49.640Z,0.00
2022-09-20T04:07:49.628Z,0.00
2022-09-20T04:08:49.617Z,0.00
2022-09-20T04:09:49.613Z,0.00
2022-09-20T04:10:49.615Z,0.00
2022-09-20T04:11:49.592Z,0.00
2022-09-20T04:12:49.579Z,0.00
2022-09-20T04:13:49.560Z,0.00
2022-09-20T04:14:49.552Z,0.00
2022-09-20T04:15:49.551Z,0.00
2022-09-20T04:16:50.225Z,0.00
2022-09-20T04:17:49.567Z,0.00
2022-09-20T04:18:49.505Z,0.00
2022-09-20T04:19:49.499Z,0.00
2022-09-20T04:20:49.506Z,0.00
2022-09-20T04:21:49.478Z,0.00
2022-09-20T04:22:49.464Z,0.00
2022-09-20T04:23:49.469Z,0.00
2022-09-20T04:24:49.442Z,0.00
2022-09-20T04:25:49.436Z,0.00
2022-09-20T04:26:49.418Z,0.00
2022-09-20T04:27:49.402Z,0.00
2022-09-20T04:28:49.404Z,0.00
2022-09-20T04:29:49.382Z,0.00
2022-09-20T04:30:49.402Z,0.00
2022-09-20T04:31:53.836Z,0.00
2022-09-20T04:32:49.371Z,0.00
2022-09-20T04:33:49.363Z,0.00
2022-09-20T04:34:49.330Z,0.00
2022-09-20T04:35:49.317Z,0.00
2022-09-20T04:36:49.327Z,0.00
2022-09-20T04:37:49.292Z,0.00
2022-09-20T04:38:49.281Z,0.00
2022-09-20T04:39:49.286Z,0.00
2022-09-20T04:40:49.263Z,0.00
2022-09-20T04:41:49.269Z,0.00
2022-09-20T04:42:49.236Z,0.00
2022-09-20T04:43:49.231Z,0.00
2022-09-20T04:44:49.220Z,0.00
2022-09-20T04:45:49.261Z,0.00
2022-09-20T04:46:52.729Z,0.00
2022-09-20T04:47:50.181Z,0.00
2022-09-20T04:48:49.179Z,0.00
2022-09-20T04:49:49.178Z,0.00
2022-09-20T04:50:49.154Z,0.00
2022-09-20T04:51:49.142Z,0.00
2022-09-20T04:52:49.145Z,0.00
2022-09-20T04:53:49.118Z,0.00
2022-09-20T04:54:49.102Z,0.00
2022-09-20T04:55:49.098Z,0.00
2022-09-20T04:56:49.086Z,0.00
2022-09-20T04:57:49.097Z,0.00
2022-09-20T04:58:49.066Z,0.00
2022-09-20T04:59:49.047Z,0.00
2022-09-20T05:00:49.115Z,0.00
2022-09-20T05:01:49.101Z,0.00
2022-09-20T05:02:49.025Z,0.00
2022-09-20T05:03:49.008Z,0.00
2022-09-20T05:04:48.990Z,0.00
2022-09-20T05:05:49.045Z,0.00
2022-09-20T05:06:48.975Z,0.00
2022-09-20T05:07:48.975Z,0.00
2022-09-20T05:08:48.946Z,0.00
2022-09-20T05:09:48.938Z,0.00
2022-09-20T05:10:48.925Z,0.00
2022-09-20T05:11:48.917Z,0.00
2022-09-20T05:12:48.929Z,0.00
2022-09-20T05:13:48.897Z,0.00
2022-09-20T05:14:48.893Z,0.00
2022-09-20T05:15:48.865Z,0.00
2022-09-20T05:16:48.915Z,0.00
2022-09-20T05:17:48.845Z,0.00
2022-09-20T05:18:48.846Z,0.00
2022-09-20T05:19:48.833Z,0.00
2022-09-20T05:20:48.817Z,0.00
2022-09-20T05:21:48.844Z,0.00
2022-09-20T05:22:48.788Z,0.00
2022-09-20T05:23:48.790Z,0.00
2022-09-20T05:24:48.765Z,0.00
2022-09-20T05:25:48.762Z,0.00
2022-09-20T05:26:48.755Z,0.00
2022-09-20T05:27:48.739Z,0.00
2022-09-20T05:28:48.728Z,0.00
2022-09-20T05:29:48.741Z,0.00
2022-09-20T05:30:48.708Z,0.00
2022-09-20T05:31:48.783Z,0.00
2022-09-20T05:32:48.683Z,0.00
2022-09-20T05:33:48.665Z,5.62
2022-09-20T05:34:48.675Z,5.62
2022-09-20T05:35:48.647Z,5.62
2022-09-20T05:36:48.633Z,5.62
2022-09-20T05:37:48.649Z,5.62
2022-09-20T05:38:48.611Z,5.62
2022-09-20T05:39:48.622Z,5.62
2022-09-20T05:40:48.598Z,5.62
2022-09-20T05:41:48.580Z,5.62
2022-09-20T05:42:48.565Z,5.62
2022-09-20T05:43:48.566Z,5.62
2022-09-20T05:44:48.571Z,5.62
2022-09-20T05:45:48.606Z,5.62
2022-09-20T05:46:48.525Z,5.62
2022-09-20T05:47:48.507Z,5.62
2022-09-20T05:48:48.503Z,5.62
2022-09-20T05:49:48.485Z,11.25
2022-09-20T05:50:48.497Z,5.62
2022-09-20T05:51:48.468Z,11.25
2022-09-20T05:52:48.461Z,11.25
2022-09-20T05:53:48.460Z,5.62
2022-09-20T05:54:48.427Z,5.62
2022-09-20T05:55:48.438Z,11.25
2022-09-20T05:56:48.569Z,11.25
2022-09-20T05:57:48.395Z,11.25
2022-09-20T05:58:48.390Z,11.25
2022-09-20T05:59:48.379Z,11.25
2022-09-20T06:00:48.444Z,11.25
2022-09-20T06:01:48.357Z,11.25
2022-09-20T06:02:48.344Z,11.25
2022-09-20T06:03:48.334Z,11.25
2022-09-20T06:04:48.321Z,11.25
2022-09-20T06:05:48.307Z,11.25
2022-09-20T06:06:48.325Z,11.25
2022-09-20T06:07:48.290Z,16.88
2022-09-20T06:08:48.282Z,16.88
2022-09-20T06:09:48.288Z,16.88
2022-09-20T06:10:48.256Z,16.88
2022-09-20T06:11:48.244Z,16.88
2022-09-20T06:12:48.240Z,16.88
2022-09-20T06:13:48.217Z,16.88
2022-09-20T06:14:48.203Z,16.88
2022-09-20T06:15:48.199Z,22.50
2022-09-20T06:16:48.253Z,22.50
2022-09-20T06:17:48.216Z,22.50
2022-09-20T06:18:48.170Z,22.50
2022-09-20T06:19:48.148Z,22.50
2022-09-20T06:20:48.137Z,28.12
2022-09-20T06:21:48.128Z,28.12
2022-09-20T06:22:48.131Z,28.12
2022-09-20T06:23:48.102Z,33.75
2022-09-20T06:24:48.093Z,33.75
2022-09-20T06:25:48.108Z,28.12
2022-09-20T06:26:48.076Z,28.12
2022-09-20T06:27:48.081Z,28.12
2022-09-20T06:28:48.044Z,33.75
2022-09-20T06:29:48.110Z,28.12
2022-09-20T06:30:48.092Z,28.12
2022-09-20T06:31:48.021Z,33.75
2022-09-20T06:32:48.011Z,33.75
2022-09-20T06:33:48.012Z,39.38
2022-09-20T06:34:47.985Z,39.38
2022-09-20T06:35:47.967Z,39.38
2022-09-20T06:36:47.966Z,39.38
2022-09-20T06:37:47.953Z,39.38
2022-09-20T06:38:47.949Z,45.00
2022-09-20T06:39:47.930Z,45.00
2022-09-20T06:40:47.912Z,45.00
2022-09-20T06:41:47.932Z,45.00
2022-09-20T06:42:47.903Z,45.00
2022-09-20T06:43:47.889Z,45.00
2022-09-20T06:44:47.882Z,45.00
2022-09-20T06:45:47.931Z,39.38
2022-09-20T06:46:47.852Z,39.38
2022-09-20T06:47:47.834Z,33.75
2022-09-20T06:48:47.841Z,28.12
2022-09-20T06:49:47.821Z,28.12
2022-09-20T06:50:47.802Z,28.12
2022-09-20T06:51:47.789Z,28.12
2022-09-20T06:52:47.782Z,28.12
2022-09-20T06:53:47.800Z,28.12
2022-09-20T06:54:47.756Z,33.75
2022-09-20T06:55:47.744Z,39.38
2022-09-20T06:56:47.739Z,45.00
2022-09-20T06:57:47.750Z,50.62
2022-09-20T06:58:47.715Z,50.62
2022-09-20T06:59:47.716Z,50.62
2022-09-20T07:00:47.734Z,50.62
2022-09-20T07:01:47.724Z,50.62
2022-09-20T07:02:47.664Z,45.00
2022-09-20T07:03:47.652Z,39.38
2022-09-20T07:04:47.657Z,39.38
2022-09-20T07:05:47.657Z,39.38
2022-09-20T07:06:47.651Z,39.38
2022-09-20T07:07:47.608Z,45.00
2022-09-20T07:08:47.606Z,45.00
2022-09-20T07:09:47.587Z,50.62
2022-09-20T07:10:47.603Z,56.25
2022-09-20T07:11:47.564Z,67.50
2022-09-20T07:12:47.564Z,73.12
2022-09-20T07:13:47.562Z,78.75
2022-09-20T07:14:47.531Z,78.75
2022-09-20T07:15:47.539Z,73.12
2022-09-20T07:16:47.578Z,67.50
2022-09-20T07:17:47.506Z,67.50
2022-09-20T07:18:47.499Z,78.75
2022-09-20T07:19:47.476Z,78.75
2022-09-20T07:20:47.494Z,73.12
2022-09-20T07:21:47.455Z,73.12
2022-09-20T07:22:47.447Z,67.50
2022-09-20T07:23:47.431Z,73.12
2022-09-20T07:24:47.426Z,73.12
2022-09-20T07:25:47.431Z,78.75
2022-09-20T07:26:47.399Z,73.12
2022-09-20T07:27:47.385Z,78.75
2022-09-20T07:28:47.373Z,67.50
2022-09-20T07:29:47.391Z,67.50
2022-09-20T07:30:47.352Z,61.88
2022-09-20T07:31:47.382Z,61.88
2022-09-20T07:32:47.345Z,50.62
2022-09-20T07:33:47.326Z,56.25
2022-09-20T07:34:47.314Z,50.62
2022-09-20T07:35:47.314Z,56.25
2022-09-20T07:36:47.291Z,56.25
2022-09-20T07:37:47.274Z,61.88
2022-09-20T07:38:47.262Z,56.25
2022-09-20T07:39:47.265Z,45.00
2022-09-20T07:40:47.246Z,56.25
2022-09-20T07:41:47.241Z,56.25
2022-09-20T07:42:47.225Z,56.25
2022-09-20T07:43:47.226Z,56.25
2022-09-20T07:44:47.195Z,73.12
2022-09-20T07:45:47.252Z,56.25
2022-09-20T07:46:47.184Z,56.25
2022-09-20T07:47:47.161Z,61.88
2022-09-20T07:48:47.155Z,56.25
2022-09-20T07:49:47.139Z,56.25
2022-09-20T07:50:47.140Z,67.50
2022-09-20T07:51:47.145Z,67.50
2022-09-20T07:52:47.117Z,61.88
2022-09-20T07:53:47.096Z,67.50
2022-09-20T07:54:47.085Z,67.50
2022-09-20T07:55:47.078Z,67.50
2022-09-20T07:56:47.066Z,67.50
2022-09-20T07:57:47.063Z,67.50
2022-09-20T07:58:51.531Z,101.25
2022-09-20T07:59:48.026Z,95.62
2022-09-20T08:00:47.069Z,78.75
2022-09-20T08:01:47.024Z,67.50
2022-09-20T08:02:47.012Z,90.00
2022-09-20T08:03:46.987Z,118.12
2022-09-20T08:04:46.969Z,118.12
2022-09-20T08:05:46.957Z,129.38
2022-09-20T08:06:46.958Z,140.62
2022-09-20T08:07:46.958Z,123.75
2022-09-20T08:08:46.930Z,151.88
2022-09-20T08:09:46.922Z,146.25
2022-09-20T08:10:46.911Z,123.75
2022-09-20T08:11:46.895Z,112.50
2022-09-20T08:14:47.964Z,135.00
2022-09-20T08:15:46.845Z,106.88
2022-09-20T08:16:46.884Z,101.25
2022-09-20T08:17:46.867Z,101.25
2022-09-20T08:18:46.823Z,135.00
2022-09-20T08:19:46.810Z,129.38
2022-09-20T08:20:46.795Z,90.00
2022-09-20T08:21:46.792Z,73.12
2022-09-20T08:23:00.857Z,67.50
2022-09-20T08:23:47.776Z,90.00
2022-09-20T08:24:46.767Z,84.38
2022-09-20T08:25:46.742Z,95.62
2022-09-20T08:26:46.725Z,90.00
2022-09-20T08:27:46.717Z,78.75
2022-09-20T08:28:46.720Z,73.12
2022-09-20T08:29:46.699Z,78.75
2022-09-20T08:30:46.676Z,106.88
2022-09-20T08:31:46.745Z,118.12
2022-09-20T08:32:46.664Z,95.62
2022-09-20T08:33:46.680Z,84.38
2022-09-20T08:34:49.304Z,61.88
2022-09-20T08:35:46.655Z,95.62
2022-09-20T08:36:46.611Z,95.62
2022-09-20T08:37:46.611Z,101.25
2022-09-20T08:40:02.958Z,118.12
2022-09-20T08:40:47.631Z,123.75
2022-09-20T08:41:46.566Z,112.50
2022-09-20T08:42:46.553Z,106.88
2022-09-20T08:43:46.689Z,112.50
2022-09-20T08:44:46.526Z,123.75
2022-09-20T08:45:46.568Z,135.00
2022-09-20T08:46:46.531Z,151.88
2022-09-20T08:47:46.537Z,146.25
2022-09-20T08:48:46.496Z,140.62
2022-09-20T08:49:46.684Z,146.25
2022-09-20T08:50:46.462Z,146.25
2022-09-20T08:51:48.623Z,157.50
2022-09-20T08:52:46.431Z,168.75
2022-09-20T08:53:49.278Z,185.62
2022-09-20T08:54:46.426Z,208.12
2022-09-20T08:55:46.398Z,219.38
2022-09-20T08:56:46.393Z,123.75
2022-09-20T08:57:46.390Z,180.00
2022-09-20T08:58:46.365Z,185.62
2022-09-20T08:59:46.378Z,213.75
2022-09-20T09:00:46.390Z,163.12
2022-09-20T09:01:46.340Z,140.62
2022-09-20T09:02:46.328Z,151.88
2022-09-20T09:03:46.315Z,101.25
2022-09-20T09:04:46.322Z,95.62
2022-09-20T09:05:46.312Z,95.62
2022-09-20T09:06:46.276Z,84.38
2022-09-20T09:07:46.273Z,78.75
2022-09-20T09:08:46.257Z,73.12
2022-09-20T09:09:46.254Z,73.12
2022-09-20T09:10:46.242Z,78.75
2022-09-20T09:11:46.247Z,67.50
2022-09-20T09:12:48.878Z,61.88
2022-09-20T09:13:46.205Z,61.88
2022-09-20T09:14:46.207Z,61.88
2022-09-20T09:15:46.178Z,61.88
2022-09-20T09:16:46.203Z,61.88
2022-09-20T09:17:46.164Z,67.50
2022-09-20T09:18:46.143Z,61.88
2022-09-20T09:19:46.145Z,56.25
2022-09-20T09:20:46.119Z,56.25
2022-09-20T09:21:46.140Z,56.25
2022-09-20T09:22:46.098Z,56.25
2022-09-20T09:23:46.087Z,56.25
2022-09-20T09:24:46.103Z,56.25
2022-09-20T09:25:46.066Z,56.25
2022-09-20T09:26:46.057Z,67.50
2022-09-20T09:27:46.048Z,61.88
2022-09-20T09:28:46.034Z,56.25
2022-09-20T09:29:46.020Z,61.88
2022-09-20T09:30:46.028Z,61.88
2022-09-20T09:31:46.110Z,61.88
2022-09-20T09:32:45.986Z,67.50
2022-09-20T09:33:45.974Z,61.88
2022-09-20T09:34:45.969Z,56.25
2022-09-20T09:35:45.965Z,67.50
2022-09-20T09:36:45.956Z,56.25
2022-09-20T09:37:45.961Z,56.25
2022-09-20T09:38:45.918Z,61.88
2022-09-20T09:39:45.916Z,61.88
2022-09-20T09:40:45.914Z,61.88
2022-09-20T09:41:45.893Z,56.25
2022-09-20T09:42:45.870Z,56.25
2022-09-20T09:43:45.869Z,56.25
2022-09-20T09:44:45.849Z,56.25
2022-09-20T09:45:45.890Z,56.25
2022-09-20T09:46:45.832Z,50.62
2022-09-20T09:47:45.814Z,50.62
2022-09-20T09:48:45.801Z,50.62
2022-09-20T09:49:45.797Z,50.62
2022-09-20T09:50:45.795Z,45.00
2022-09-20T09:51:45.782Z,50.62
2022-09-20T09:52:45.765Z,45.00
2022-09-20T09:53:45.894Z,45.00
2022-09-20T09:54:45.738Z,45.00
2022-09-20T09:55:45.748Z,45.00
2022-09-20T09:56:45.720Z,45.00
2022-09-20T09:57:45.707Z,45.00
2022-09-20T09:58:45.687Z,45.00
2022-09-20T09:59:45.676Z,45.00
2022-09-20T10:00:45.728Z,45.00
2022-09-20T10:01:45.766Z,45.00
2022-09-20T10:02:45.694Z,39.38
2022-09-20T10:03:45.632Z,39.38
2022-09-20T10:04:45.617Z,33.75
2022-09-20T10:05:45.616Z,33.75
2022-09-20T10:06:49.334Z,28.12
2022-09-20T10:07:46.598Z,28.12
2022-09-20T10:08:45.576Z,22.50
2022-09-20T10:09:45.591Z,22.50
2022-09-20T10:10:45.550Z,22.50
2022-09-20T10:11:45.558Z,22.50
2022-09-20T10:12:45.533Z,16.88
2022-09-20T10:13:45.610Z,16.88
2022-09-20T10:14:45.512Z,11.25
2022-09-20T10:15:45.498Z,11.25
2022-09-20T10:16:45.615Z,11.25
2022-09-20T10:17:45.476Z,16.88
2022-09-20T10:18:45.463Z,16.88
2022-09-20T10:19:45.459Z,16.88
2022-09-20T10:20:45.440Z,11.25
2022-09-20T10:21:45.446Z,11.25
2022-09-20T10:22:55.309Z,11.25
2022-09-20T10:24:02.660Z,11.25
2022-09-20T10:24:50.998Z,11.25
2022-09-20T10:25:46.432Z,11.25
2022-09-20T10:26:45.389Z,11.25
2022-09-20T10:27:45.363Z,11.25
2022-09-20T10:28:45.352Z,11.25
2022-09-20T10:29:45.352Z,16.88
2022-09-20T10:30:45.392Z,16.88
2022-09-20T10:31:45.351Z,16.88
2022-09-20T10:32:45.315Z,22.50
2022-09-20T10:33:45.319Z,22.50
2022-09-20T10:34:45.294Z,28.12
2022-09-20T10:35:45.283Z,28.12
2022-09-20T10:36:45.286Z,39.38
2022-09-20T10:37:49.163Z,45.00
2022-09-20T10:38:45.313Z,50.62
2022-09-20T10:39:45.231Z,56.25
2022-09-20T10:40:45.303Z,61.88
2022-09-20T10:41:45.256Z,67.50
2022-09-20T10:42:45.211Z,67.50
2022-09-20T10:43:45.224Z,84.38
2022-09-20T10:44:45.183Z,90.00
2022-09-20T10:46:08.768Z,106.88
2022-09-20T10:46:46.211Z,118.12
2022-09-20T10:47:45.144Z,123.75
2022-09-20T10:48:45.169Z,140.62
2022-09-20T10:49:49.859Z,151.88
2022-09-20T10:50:46.115Z,146.25
2022-09-20T10:51:45.102Z,151.88
2022-09-20T10:52:45.109Z,146.25
2022-09-20T10:53:45.169Z,135.00
2022-09-20T10:54:45.080Z,129.38
2022-09-20T10:55:45.057Z,118.12
2022-09-20T10:56:45.041Z,118.12
2022-09-20T10:57:46.889Z,118.12
2022-09-20T10:58:45.045Z,106.88
2022-09-20T10:59:45.008Z,95.62
2022-09-20T11:00:45.064Z,84.38
2022-09-20T11:01:45.112Z,73.12
2022-09-20T11:02:45.011Z,56.25
2022-09-20T11:03:45.097Z,50.62
2022-09-20T11:04:44.956Z,50.62
2022-09-20T11:05:44.939Z,50.62
2022-09-20T11:06:44.929Z,56.25
2022-09-20T11:07:44.916Z,67.50
2022-09-20T11:08:44.916Z,67.50
2022-09-20T11:09:44.893Z,61.88
2022-09-20T11:10:44.888Z,61.88
2022-09-20T11:11:44.874Z,61.88
2022-09-20T11:12:44.859Z,61.88
2022-09-20T11:13:44.974Z,56.25
2022-09-20T11:14:44.837Z,50.62
2022-09-20T11:15:44.824Z,39.38
2022-09-20T11:16:44.969Z,33.75
2022-09-20T11:17:44.812Z,33.75
2022-09-20T11:18:44.801Z,33.75
2022-09-20T11:19:44.799Z,33.75
2022-09-20T11:20:44.773Z,33.75
2022-09-20T11:21:44.768Z,28.12
2022-09-20T11:22:44.752Z,22.50
2022-09-20T11:23:44.762Z,22.50
2022-09-20T11:24:44.740Z,22.50
2022-09-20T11:25:44.723Z,22.50
2022-09-20T11:26:44.707Z,28.12
2022-09-20T11:27:44.689Z,28.12
2022-09-20T11:28:44.738Z,28.12
2022-09-20T11:29:44.698Z,28.12
2022-09-20T11:30:44.666Z,33.75
2022-09-20T11:31:44.692Z,33.75
2022-09-20T11:32:44.642Z,39.38
2022-09-20T11:33:44.617Z,39.38
2022-09-20T11:34:44.615Z,39.38
2022-09-20T11:35:44.617Z,45.00
2022-09-20T11:36:44.591Z,45.00
2022-09-20T11:37:44.581Z,50.62
2022-09-20T11:38:44.659Z,50.62
2022-09-20T11:39:44.555Z,56.25
2022-09-20T11:40:44.627Z,56.25
2022-09-20T11:41:44.537Z,56.25
2022-09-20T11:42:44.529Z,56.25
2022-09-20T11:43:44.510Z,56.25
2022-09-20T11:44:44.506Z,50.62
2022-09-20T11:45:44.605Z,50.62
2022-09-20T11:46:44.493Z,50.62
2022-09-20T11:47:54.657Z,45.00
2022-09-20T11:48:45.454Z,39.38
2022-09-20T11:49:44.472Z,39.38
2022-09-20T11:50:44.456Z,39.38
2022-09-20T11:51:44.419Z,39.38
2022-09-20T11:52:44.418Z,33.75
2022-09-20T11:53:44.399Z,33.75
2022-09-20T11:54:44.408Z,28.12
2022-09-20T11:55:44.418Z,28.12
2022-09-20T11:56:44.373Z,28.12
2022-09-20T11:57:44.357Z,33.75
2022-09-20T11:58:44.347Z,33.75
2022-09-20T11:59:44.334Z,33.75
2022-09-20T12:00:44.336Z,33.75
2022-09-20T12:01:44.411Z,33.75
2022-09-20T12:02:44.486Z,33.75
2022-09-20T12:03:44.289Z,33.75
2022-09-20T12:04:44.278Z,33.75
2022-09-20T12:05:44.274Z,33.75
2022-09-20T12:06:44.271Z,33.75
2022-09-20T12:07:44.255Z,39.38
2022-09-20T12:08:44.239Z,39.38
2022-09-20T12:09:44.220Z,39.38
2022-09-20T12:10:44.219Z,39.38
2022-09-20T12:11:44.213Z,39.38
2022-09-20T12:12:44.213Z,39.38
2022-09-20T12:13:44.213Z,39.38
2022-09-20T12:14:44.180Z,39.38
2022-09-20T12:15:44.161Z,39.38
2022-09-20T12:16:44.242Z,45.00
2022-09-20T12:17:44.161Z,50.62
2022-09-20T12:18:44.129Z,56.25
2022-09-20T12:19:44.123Z,61.88
2022-09-20T12:20:44.101Z,67.50
2022-09-20T12:21:49.432Z,73.12
2022-09-20T12:22:45.077Z,67.50
2022-09-20T12:23:44.066Z,61.88
2022-09-20T12:24:45.598Z,61.88
2022-09-20T12:25:44.063Z,56.25
2022-09-20T12:26:44.076Z,56.25
2022-09-20T12:27:44.022Z,61.88
2022-09-20T12:28:44.030Z,67.50
2022-09-20T12:29:43.999Z,67.50
2022-09-20T12:30:43.989Z,67.50
2022-09-20T12:31:44.017Z,73.12
2022-09-20T12:32:43.967Z,73.12
2022-09-20T12:33:43.975Z,73.12
2022-09-20T12:34:43.944Z,73.12
2022-09-20T12:35:43.932Z,84.38
2022-09-20T12:36:43.940Z,90.00
2022-09-20T12:37:43.909Z,95.62
2022-09-20T12:38:43.919Z,101.25
2022-09-20T12:39:43.887Z,157.50
2022-09-20T12:40:43.893Z,123.75
2022-09-20T12:41:43.880Z,123.75
2022-09-20T12:42:43.860Z,151.88
2022-09-20T12:43:43.839Z,180.00
2022-09-20T12:44:43.827Z,95.62
2022-09-20T12:45:43.835Z,90.00
2022-09-20T12:46:43.818Z,174.38
2022-09-20T12:47:43.808Z,140.62
2022-09-20T12:48:43.794Z,180.00
2022-09-20T12:49:43.801Z,180.00
2022-09-20T12:50:43.766Z,180.00
2022-09-20T12:51:43.755Z,163.12
2022-09-20T12:52:43.760Z,185.62
2022-09-20T12:53:43.726Z,168.75
2022-09-20T12:54:43.716Z,196.88
2022-09-20T12:55:43.717Z,174.38
2022-09-20T12:56:43.696Z,185.62
2022-09-20T12:57:43.693Z,208.12
2022-09-20T12:58:43.680Z,106.88
2022-09-20T12:59:43.686Z,129.38
2022-09-20T13:00:43.678Z,106.88
2022-09-20T13:01:43.758Z,73.12
2022-09-20T13:02:43.652Z,180.00
2022-09-20T13:03:43.617Z,90.00
2022-09-20T13:04:43.614Z,180.00